Aérodrome :
LOGIN :

S'inscrire | Disclaimer

   EN    FR    IT 

 










Légende :    VFR   VFR Marginal   IFR   IFR Intensif   IFR Très Intensif
Visi : 
Plafond : 
>= 8 km
>= 3000ft
5 à 8 km
1000 à 3000 ft
1500m à 5 km
500 à 1000 ft
800 à 1500m
200 à 500 ft
< 800m
< 200 ft
Symboles :   Orages  Brouillard  Fortes neiges  Fortes précipitations  Vent > 20 kt
SIGMETs :   Divers  Orages  Givrage  Turbulence  Onde Orograph.  Cendres Volcan.






- Altitude de l'aérodrome : 517 ft
- Code IATA : GML


UKKM - Antonov

DERNIER METAR :
  • 120000Z AUTO 11003MPS 5000 BR ///005/// 01/01 Q1020

METARs EXPIRÉS :
  • 112330Z AUTO 13003MPS 090V160 6000 // ///004/// 01/01 Q1020
  • 112300Z AUTO 13003MPS 100V170 6000 // ///004/// 01/01 Q1021
  • 112230Z AUTO 15004MPS 6000 // ///004/// 01/01 Q1021
  • 112200Z AUTO 14005MPS 6000 // ///005/// 01/01 Q1021
  • 112130Z AUTO 14003MPS 110V170 4100 BR ///005/// 01/01 Q1021

TAF TAF UKKM
Valide du 11 à 12h jusqu'au 12 à 12h UTC


111105Z 1112/1212 VRB01MPS 4000 BR OVC007 TX04/1212Z TN00/1205Z
TEMPO 1112/1115 2000 BR OVC005
BECMG 1115/1117 11004MPS 2000 BR OVC005
TEMPO 1117/1206 0300 FG VV001



MET'MAP, la Météo Aéronautique d'un coup d'oeil ! - Copyright ORBIFLY Décembre 2007 - Disclaimer

ORBIFLY MET'MAP TEAM :

Programmation & Développement : Alexandra Zaïnal
Sur une idée originale de : Baudouin d'Aumeries
Assistance à la programmation : Marc-Olivier Méhu
Soutien technique & logistique : Manuel Goepfert

Contact : metmap@orbifly.com




SOURCES & CREDITS :

   NOAA